createdAt,value
2018-09-19T00:01:47.382Z,12.80
2018-09-19T00:04:15.586Z,13.20
2018-09-19T00:06:43.754Z,12.50
2018-09-19T00:09:12.482Z,13.38
2018-09-19T00:11:40.943Z,13.18
2018-09-19T00:14:13.552Z,12.70
2018-09-19T00:16:41.680Z,11.45
2018-09-19T00:19:09.790Z,13.15
2018-09-19T00:21:37.940Z,11.00
2018-09-19T00:24:06.097Z,10.37
2018-09-19T00:26:34.242Z,11.90
2018-09-19T00:29:02.386Z,9.45
2018-09-19T00:31:30.466Z,9.75
2018-09-19T00:33:58.624Z,10.10
2018-09-19T00:36:26.773Z,10.48
2018-09-19T00:38:54.895Z,8.90
2018-09-19T00:41:23.031Z,9.88
2018-09-19T00:43:51.157Z,9.95
2018-09-19T00:46:19.264Z,9.50
2018-09-19T00:48:47.445Z,9.43
2018-09-19T00:51:15.628Z,8.00
2018-09-19T00:53:43.904Z,8.48
2018-09-19T00:56:12.020Z,8.55
2018-09-19T00:58:40.256Z,8.43
2018-09-19T01:01:08.419Z,7.97
2018-09-19T01:03:36.570Z,7.70
2018-09-19T01:06:04.732Z,8.13
2018-09-19T01:08:32.859Z,8.80
2018-09-19T01:11:00.980Z,8.48
2018-09-19T01:13:29.137Z,8.55
2018-09-19T01:15:57.269Z,7.77
2018-09-19T01:18:25.379Z,7.53
2018-09-19T01:20:53.548Z,9.30
2018-09-19T01:23:21.693Z,8.88
2018-09-19T01:25:49.828Z,7.87
2018-09-19T01:28:18.019Z,8.38
2018-09-19T01:30:46.136Z,7.25
2018-09-19T01:33:14.266Z,7.47
2018-09-19T01:35:42.436Z,8.53
2018-09-19T01:38:10.546Z,7.83
2018-09-19T01:40:38.676Z,9.33
2018-09-19T01:43:06.797Z,7.42
2018-09-19T01:45:34.917Z,7.20
2018-09-19T01:48:03.047Z,6.87
2018-09-19T01:50:31.213Z,7.60
2018-09-19T01:52:59.349Z,8.25
2018-09-19T01:55:27.470Z,7.70
2018-09-19T01:57:55.598Z,7.80
2018-09-19T02:00:23.728Z,7.45
2018-09-19T02:02:51.845Z,8.48
2018-09-19T02:05:19.978Z,8.20
2018-09-19T02:07:48.084Z,7.78
2018-09-19T02:10:16.224Z,7.90
2018-09-19T02:12:44.342Z,7.50
2018-09-19T02:15:12.512Z,7.23
2018-09-19T02:17:40.604Z,7.40
2018-09-19T02:20:08.717Z,9.23
2018-09-19T02:22:36.817Z,8.30
2018-09-19T02:25:04.946Z,9.13
2018-09-19T02:27:33.057Z,8.58
2018-09-19T02:30:01.192Z,7.42
2018-09-19T02:32:29.312Z,7.70
2018-09-19T02:34:57.469Z,8.10
2018-09-19T02:37:25.580Z,8.10
2018-09-19T02:39:53.740Z,8.30
2018-09-19T02:42:21.906Z,9.33
2018-09-19T02:44:50.044Z,8.13
2018-09-19T02:47:18.197Z,9.10
2018-09-19T02:49:46.308Z,8.33
2018-09-19T02:52:14.448Z,8.10
2018-09-19T02:54:42.597Z,9.30
2018-09-19T02:57:10.674Z,9.45
2018-09-19T02:59:38.813Z,9.10
2018-09-19T03:02:06.954Z,8.65
2018-09-19T03:04:35.074Z,8.83
2018-09-19T03:07:03.213Z,8.10
2018-09-19T03:09:31.305Z,7.15
2018-09-19T03:11:59.416Z,7.72
2018-09-19T03:14:27.577Z,8.20
2018-09-19T03:16:55.686Z,8.00
2018-09-19T03:19:23.804Z,8.25
2018-09-19T03:21:52.032Z,9.15
2018-09-19T03:24:20.197Z,8.27
2018-09-19T03:26:48.351Z,7.12
2018-09-19T03:29:16.480Z,8.28
2018-09-19T03:31:44.592Z,7.08
2018-09-19T03:34:12.698Z,7.73
2018-09-19T03:36:40.801Z,7.90
2018-09-19T03:39:10.051Z,7.08
2018-09-19T03:41:38.633Z,8.60
2018-09-19T03:44:06.931Z,8.30
2018-09-19T03:46:35.505Z,7.15
2018-09-19T03:49:03.650Z,7.92
2018-09-19T03:51:31.877Z,8.28
2018-09-19T03:54:00.039Z,9.25
2018-09-19T03:56:28.192Z,8.18
2018-09-19T03:58:56.329Z,8.40
2018-09-19T04:01:24.577Z,8.48
2018-09-19T04:03:52.733Z,9.98
2018-09-19T04:06:20.882Z,8.58
2018-09-19T04:08:49.233Z,7.58
2018-09-19T04:11:17.416Z,9.15
2018-09-19T04:13:45.541Z,8.08
2018-09-19T04:16:13.694Z,8.30
2018-09-19T04:18:41.850Z,8.95
2018-09-19T04:21:10.027Z,8.88
2018-09-19T04:23:39.465Z,10.26
2018-09-19T04:26:07.617Z,9.55
2018-09-19T04:28:35.785Z,9.63
2018-09-19T04:31:03.924Z,8.13
2018-09-19T04:33:32.038Z,9.28
2018-09-19T04:36:00.164Z,10.43
2018-09-19T04:38:28.305Z,9.68
2018-09-19T04:40:56.464Z,10.20
2018-09-19T04:43:24.592Z,8.75
2018-09-19T04:45:52.718Z,9.50
2018-09-19T04:48:20.901Z,9.25
2018-09-19T04:50:51.157Z,11.08
2018-09-19T04:53:19.452Z,10.23
2018-09-19T04:55:47.582Z,11.97
2018-09-19T04:58:15.773Z,11.73
2018-09-19T05:00:43.982Z,10.35
2018-09-19T05:03:12.150Z,11.18
2018-09-19T05:05:40.355Z,10.00
2018-09-19T05:08:08.474Z,11.25
2018-09-19T05:10:36.694Z,11.45
2018-09-19T05:13:04.838Z,11.85
2018-09-19T05:15:33.072Z,10.50
2018-09-19T05:18:01.215Z,11.55
2018-09-19T05:20:29.345Z,10.32
2018-09-19T05:22:57.505Z,11.05
2018-09-19T05:25:25.838Z,12.40
2018-09-19T05:27:53.992Z,11.45
2018-09-19T05:30:22.143Z,11.68
2018-09-19T05:32:50.355Z,11.45
2018-09-19T05:35:18.497Z,11.77
2018-09-19T05:37:46.688Z,12.13
2018-09-19T05:40:14.827Z,11.80
2018-09-19T05:42:43.002Z,11.40
2018-09-19T05:45:11.799Z,14.27
2018-09-19T05:47:39.922Z,11.05
2018-09-19T05:50:08.122Z,12.82
2018-09-19T05:52:36.317Z,12.30
2018-09-19T05:55:04.490Z,11.90
2018-09-19T05:57:32.660Z,12.25
2018-09-19T06:00:00.815Z,11.48
2018-09-19T06:02:28.988Z,13.78
2018-09-19T06:04:57.125Z,11.73
2018-09-19T06:07:25.206Z,12.90
2018-09-19T06:09:53.319Z,13.03
2018-09-19T06:12:21.481Z,13.55
2018-09-19T06:14:49.647Z,13.13
2018-09-19T06:17:17.756Z,13.55
2018-09-19T06:19:45.924Z,13.68
2018-09-19T06:22:14.070Z,12.35
2018-09-19T06:24:42.231Z,13.00
2018-09-19T06:27:10.372Z,14.75
2018-09-19T06:29:38.480Z,13.40
2018-09-19T06:32:06.741Z,13.53
2018-09-19T06:34:34.861Z,13.60
2018-09-19T06:37:03.033Z,13.83
2018-09-19T06:39:31.102Z,13.38
2018-09-19T06:41:59.272Z,14.00
2018-09-19T06:44:27.428Z,13.80
2018-09-19T06:46:55.627Z,14.03
2018-09-19T06:49:23.686Z,14.33
2018-09-19T06:51:51.885Z,13.32
2018-09-19T06:54:19.997Z,12.67
2018-09-19T06:56:48.177Z,11.85
2018-09-19T06:59:16.279Z,12.98
2018-09-19T07:01:44.394Z,11.00
2018-09-19T07:04:12.837Z,11.93
2018-09-19T07:06:40.967Z,12.35
2018-09-19T07:09:10.005Z,12.47
2018-09-19T07:11:38.153Z,12.90
2018-09-19T07:14:06.675Z,13.10
2018-09-19T07:16:34.799Z,11.80
2018-09-19T07:19:02.983Z,12.63
2018-09-19T07:21:31.092Z,13.72
2018-09-19T07:23:59.231Z,13.00
2018-09-19T07:26:27.347Z,13.18
2018-09-19T07:28:55.507Z,12.58
2018-09-19T07:31:23.627Z,12.50
2018-09-19T07:33:51.743Z,13.75
2018-09-19T07:36:19.843Z,11.88
2018-09-19T07:38:47.957Z,12.33
2018-09-19T07:41:16.088Z,12.47
2018-09-19T07:43:44.192Z,12.30
2018-09-19T07:46:12.310Z,11.00
2018-09-19T07:48:40.439Z,11.65
2018-09-19T07:51:08.546Z,11.50
2018-09-19T07:53:36.654Z,11.53
2018-09-19T07:56:05.214Z,10.95
2018-09-19T07:58:33.484Z,10.70
2018-09-19T08:01:01.667Z,9.18
2018-09-19T08:03:29.717Z,10.08
2018-09-19T08:05:57.876Z,10.07
2018-09-19T08:08:25.985Z,10.23
2018-09-19T08:10:54.264Z,9.85
2018-09-19T08:13:22.401Z,9.30
2018-09-19T08:15:50.549Z,8.55
2018-09-19T08:18:18.633Z,7.10
2018-09-19T08:20:46.753Z,8.08
2018-09-19T08:23:14.883Z,7.60
2018-09-19T08:25:43.048Z,7.47
2018-09-19T08:28:11.193Z,7.10
2018-09-19T08:30:39.301Z,5.78
2018-09-19T08:33:07.421Z,6.15
2018-09-19T08:35:35.523Z,6.70
2018-09-19T08:38:03.639Z,7.83
2018-09-19T08:40:31.893Z,6.17
2018-09-19T08:43:00.048Z,7.90
2018-09-19T08:45:28.218Z,6.70
2018-09-19T08:47:56.366Z,6.45
2018-09-19T08:50:24.526Z,6.20
2018-09-19T08:52:52.653Z,5.47
2018-09-19T08:55:20.777Z,7.03
2018-09-19T08:57:48.937Z,6.87
2018-09-19T09:00:17.089Z,5.60
2018-09-19T09:02:45.201Z,5.53
2018-09-19T09:05:13.392Z,6.65
2018-09-19T09:07:41.472Z,5.70
2018-09-19T09:10:09.619Z,4.50
2018-09-19T09:12:37.979Z,4.90
2018-09-19T09:15:06.133Z,4.95
2018-09-19T09:17:34.281Z,4.35
2018-09-19T09:20:02.473Z,4.87
2018-09-19T09:22:30.576Z,5.20
2018-09-19T09:24:58.843Z,4.40
2018-09-19T09:27:27.067Z,3.80
2018-09-19T09:29:55.069Z,3.80
2018-09-19T09:32:23.152Z,4.10
2018-09-19T09:34:51.265Z,4.70
2018-09-19T09:37:19.379Z,3.90
2018-09-19T09:39:47.497Z,3.60
2018-09-19T09:42:15.601Z,3.40
2018-09-19T09:44:43.682Z,3.30
2018-09-19T09:47:11.805Z,3.90
2018-09-19T09:49:39.937Z,4.20
2018-09-19T09:52:08.074Z,3.60
2018-09-19T09:54:36.374Z,3.20
2018-09-19T09:57:04.768Z,3.77
2018-09-19T09:59:32.891Z,3.80
2018-09-19T10:02:01.093Z,3.50
2018-09-19T10:04:29.238Z,3.13
2018-09-19T10:06:57.342Z,3.33
2018-09-19T10:09:25.471Z,2.70
2018-09-19T10:11:53.553Z,3.53
2018-09-19T10:14:21.654Z,3.13
2018-09-19T10:16:49.753Z,3.20
2018-09-19T10:19:17.904Z,3.40
2018-09-19T10:21:45.996Z,3.00
2018-09-19T10:24:14.148Z,3.23
2018-09-19T10:26:42.292Z,2.87
2018-09-19T10:29:10.387Z,3.33
2018-09-19T10:31:38.530Z,3.50
2018-09-19T10:34:06.698Z,3.10
2018-09-19T10:36:34.819Z,2.83
2018-09-19T10:39:03.013Z,3.47
2018-09-19T10:41:31.133Z,3.07
2018-09-19T10:43:59.281Z,3.10
2018-09-19T10:46:27.359Z,3.07
2018-09-19T10:48:55.486Z,3.50
2018-09-19T10:51:23.613Z,3.43
2018-09-19T10:53:51.708Z,2.83
2018-09-19T10:56:19.833Z,2.47
2018-09-19T10:58:47.956Z,5.40
2018-09-19T11:01:16.080Z,4.37
2018-09-19T11:03:44.203Z,5.83
2018-09-19T11:06:12.418Z,3.50
2018-09-19T11:08:40.541Z,2.70
2018-09-19T11:11:09.027Z,2.83
2018-09-19T11:13:37.141Z,2.80
2018-09-19T11:16:05.397Z,3.23
2018-09-19T11:18:33.501Z,4.00
2018-09-19T11:21:01.633Z,3.50
2018-09-19T11:23:29.753Z,3.10
2018-09-19T11:25:57.893Z,2.73
2018-09-19T11:28:25.995Z,3.20
2018-09-19T11:30:54.925Z,3.23
2018-09-19T11:33:22.997Z,3.10
2018-09-19T11:35:51.080Z,3.40
2018-09-19T11:38:19.195Z,3.20
2018-09-19T11:40:47.310Z,2.70
2018-09-19T11:43:15.452Z,3.83
2018-09-19T11:45:43.513Z,2.40
2018-09-19T11:48:11.591Z,2.80
2018-09-19T11:50:39.681Z,2.70
2018-09-19T11:53:13.167Z,2.73
2018-09-19T11:55:41.292Z,2.77
2018-09-19T11:58:09.463Z,2.97
2018-09-19T12:00:37.522Z,2.80
2018-09-19T12:03:05.613Z,2.47
2018-09-19T12:05:33.709Z,3.13
2018-09-19T12:08:01.890Z,3.73
2018-09-19T12:10:29.985Z,2.80
2018-09-19T12:12:58.092Z,2.60
2018-09-19T12:15:26.291Z,2.83
2018-09-19T12:17:54.376Z,2.67
2018-09-19T12:20:22.497Z,2.60
2018-09-19T12:22:50.599Z,2.90
2018-09-19T12:25:18.669Z,2.77
2018-09-19T12:27:46.758Z,2.63
2018-09-19T12:30:15.014Z,2.80
2018-09-19T12:32:43.127Z,4.13
2018-09-19T12:35:11.283Z,3.07
2018-09-19T12:37:39.418Z,2.97
2018-09-19T12:40:07.496Z,2.87
2018-09-19T12:42:35.594Z,3.80
2018-09-19T12:45:03.677Z,2.77
2018-09-19T12:47:31.764Z,2.87
2018-09-19T12:49:59.846Z,2.63
2018-09-19T12:52:27.962Z,2.90
2018-09-19T12:54:56.043Z,2.77
2018-09-19T12:57:24.144Z,3.33
2018-09-19T12:59:52.266Z,2.70
2018-09-19T13:02:20.368Z,3.37
2018-09-19T13:04:48.464Z,2.60
2018-09-19T13:07:16.544Z,2.60
2018-09-19T13:09:44.632Z,3.13
2018-09-19T13:12:12.728Z,3.27
2018-09-19T13:14:40.822Z,2.37
2018-09-19T13:17:08.925Z,3.00
2018-09-19T13:19:37.020Z,2.80
2018-09-19T13:22:05.141Z,2.53
2018-09-19T13:24:33.219Z,2.87
2018-09-19T13:27:01.300Z,2.83
2018-09-19T13:29:29.401Z,3.50
2018-09-19T13:31:57.501Z,2.47
2018-09-19T13:34:25.573Z,3.10
2018-09-19T13:36:53.659Z,3.30
2018-09-19T13:39:21.768Z,3.00
2018-09-19T13:41:49.869Z,3.80
2018-09-19T13:44:18.045Z,3.97
2018-09-19T13:46:46.147Z,3.40
2018-09-19T13:49:26.819Z,3.17
2018-09-19T13:51:55.071Z,3.20
2018-09-19T13:54:23.161Z,3.13
2018-09-19T13:56:51.264Z,3.80
2018-09-19T13:59:19.371Z,3.90
2018-09-19T14:01:47.468Z,3.47
2018-09-19T14:04:15.645Z,4.17
2018-09-19T14:06:43.694Z,4.30
2018-09-19T14:09:11.776Z,3.83
2018-09-19T14:11:39.933Z,4.70
2018-09-19T14:14:07.988Z,3.40
2018-09-19T14:16:36.094Z,4.03
2018-09-19T14:19:04.210Z,3.50
2018-09-19T14:21:32.302Z,4.20
2018-09-19T14:24:00.376Z,3.80
2018-09-19T14:26:28.488Z,3.83
2018-09-19T14:28:56.688Z,3.90
2018-09-19T14:31:24.789Z,3.80
2018-09-19T14:33:52.911Z,4.67
2018-09-19T14:36:21.017Z,3.90
2018-09-19T14:38:49.114Z,4.50
2018-09-19T14:41:17.229Z,4.03
2018-09-19T14:43:45.307Z,4.90
2018-09-19T14:46:13.415Z,4.37
2018-09-19T14:48:41.604Z,4.20
2018-09-19T14:51:09.627Z,4.03
2018-09-19T14:53:37.704Z,3.73
2018-09-19T14:56:05.807Z,4.23
2018-09-19T14:58:33.971Z,4.23
2018-09-19T15:01:02.077Z,4.23
2018-09-19T15:03:30.168Z,3.30
2018-09-19T15:05:58.308Z,3.97
2018-09-19T15:08:26.438Z,4.40
2018-09-19T15:10:54.561Z,4.60
2018-09-19T15:13:22.688Z,3.93
2018-09-19T15:15:50.788Z,4.60
2018-09-19T15:18:18.899Z,4.10
2018-09-19T15:20:47.017Z,4.10
2018-09-19T15:23:15.240Z,4.13
2018-09-19T15:25:43.371Z,4.27
2018-09-19T15:28:11.481Z,4.77
2018-09-19T15:30:39.594Z,4.40
2018-09-19T15:33:07.709Z,4.83
2018-09-19T15:35:35.838Z,4.90
2018-09-19T15:38:03.971Z,4.83
2018-09-19T15:40:32.104Z,4.90
2018-09-19T15:43:00.224Z,5.70
2018-09-19T15:45:28.361Z,4.50
2018-09-19T15:47:56.527Z,4.57
2018-09-19T15:50:24.627Z,4.77
2018-09-19T15:52:52.759Z,4.43
2018-09-19T15:55:20.964Z,4.90
2018-09-19T15:57:49.109Z,5.23
2018-09-19T16:00:17.869Z,4.83
2018-09-19T16:02:46.032Z,5.10
2018-09-19T16:05:14.164Z,5.07
2018-09-19T16:07:42.294Z,5.77
2018-09-19T16:10:10.398Z,4.47
2018-09-19T16:12:38.524Z,5.53
2018-09-19T16:15:06.653Z,4.40
2018-09-19T16:17:34.778Z,4.43
2018-09-19T16:20:02.906Z,5.40
2018-09-19T16:22:31.005Z,5.50
2018-09-19T16:24:59.117Z,5.47
2018-09-19T16:27:27.232Z,5.20
2018-09-19T16:29:55.359Z,5.20
2018-09-19T16:32:23.478Z,5.13
2018-09-19T16:34:51.616Z,5.30
2018-09-19T16:37:19.737Z,4.80
2018-09-19T16:39:47.845Z,5.20
2018-09-19T16:42:16.024Z,6.03
2018-09-19T16:44:44.119Z,5.10
2018-09-19T16:47:12.257Z,6.00
2018-09-19T16:49:40.397Z,4.87
2018-09-19T16:52:08.527Z,5.43
2018-09-19T16:54:36.659Z,5.47
2018-09-19T16:57:04.820Z,5.20
2018-09-19T16:59:32.969Z,5.70
2018-09-19T17:02:01.121Z,6.20
2018-09-19T17:04:29.252Z,6.07
2018-09-19T17:06:57.432Z,4.93
2018-09-19T17:09:25.584Z,5.53
2018-09-19T17:11:53.706Z,5.10
2018-09-19T17:14:21.879Z,5.80
2018-09-19T17:16:50.017Z,5.70
2018-09-19T17:19:18.141Z,5.70
2018-09-19T17:21:46.243Z,5.67
2018-09-19T17:24:14.372Z,5.83
2018-09-19T17:26:42.470Z,5.40
2018-09-19T17:29:10.581Z,5.63
2018-09-19T17:31:38.703Z,5.90
2018-09-19T17:34:06.861Z,5.63
2018-09-19T17:36:35.016Z,5.57
2018-09-19T17:39:03.936Z,5.40
2018-09-19T17:41:32.048Z,6.30
2018-09-19T17:44:00.184Z,6.40
2018-09-19T17:46:28.312Z,6.20
2018-09-19T17:48:56.442Z,5.80
2018-09-19T17:51:24.581Z,5.70
2018-09-19T17:53:52.699Z,6.40
2018-09-19T17:56:20.805Z,6.00
2018-09-19T17:58:48.988Z,5.33
2018-09-19T18:01:17.129Z,6.07
2018-09-19T18:03:45.264Z,5.63
2018-09-19T18:06:13.846Z,6.20
2018-09-19T18:08:42.017Z,6.10
2018-09-19T18:11:10.175Z,6.07
2018-09-19T18:13:39.448Z,6.90
2018-09-19T18:16:07.555Z,6.23
2018-09-19T18:18:35.690Z,6.23
2018-09-19T18:21:03.816Z,6.20
2018-09-19T18:23:31.958Z,6.17
2018-09-19T18:26:00.062Z,6.70
2018-09-19T18:28:28.173Z,6.37
2018-09-19T18:30:56.274Z,6.40
2018-09-19T18:33:24.392Z,6.60
2018-09-19T18:35:52.509Z,6.43
2018-09-19T18:38:20.644Z,7.10
2018-09-19T18:40:48.739Z,7.30
2018-09-19T18:43:16.846Z,6.00
2018-09-19T18:45:45.030Z,6.80
2018-09-19T18:48:13.174Z,6.43
2018-09-19T18:50:41.303Z,6.60
2018-09-19T18:53:09.587Z,6.33
2018-09-19T18:55:37.720Z,6.63
2018-09-19T18:58:05.845Z,6.50
2018-09-19T19:00:33.968Z,6.87
2018-09-19T19:03:02.072Z,6.80
2018-09-19T19:05:30.302Z,7.53
2018-09-19T19:07:58.499Z,6.20
2018-09-19T19:10:26.648Z,7.10
2018-09-19T19:12:54.762Z,6.23
2018-09-19T19:15:22.895Z,6.60
2018-09-19T19:17:51.061Z,7.27
2018-09-19T19:20:19.228Z,7.10
2018-09-19T19:22:47.383Z,10.00
2018-09-19T19:25:15.544Z,11.38
2018-09-19T19:27:43.720Z,13.73
2018-09-19T19:30:11.989Z,14.00
2018-09-19T19:32:40.054Z,13.80
2018-09-19T19:35:08.185Z,15.00
2018-09-19T19:37:36.381Z,15.27
2018-09-19T19:40:04.538Z,14.87
2018-09-19T19:42:32.690Z,17.50
2018-09-19T19:45:00.826Z,17.97
2018-09-19T19:47:29.021Z,18.63
2018-09-19T19:49:57.151Z,18.80
2018-09-19T19:52:25.287Z,18.67
2018-09-19T19:54:53.441Z,19.40
2018-09-19T19:57:21.568Z,17.80
2018-09-19T19:59:49.696Z,17.50
2018-09-19T20:02:17.857Z,19.50
2018-09-19T20:04:46.013Z,18.00
2018-09-19T20:07:14.178Z,20.43
2018-09-19T20:09:42.398Z,19.47
2018-09-19T20:12:10.520Z,21.07
2018-09-19T20:14:38.743Z,20.30
2018-09-19T20:17:06.847Z,20.90
2018-09-19T20:19:35.029Z,20.30
2018-09-19T20:22:03.157Z,19.83
2018-09-19T20:24:31.296Z,21.50
2018-09-19T20:26:59.461Z,20.57
2018-09-19T20:29:27.613Z,21.23
2018-09-19T20:31:55.766Z,22.02
2018-09-19T20:34:23.919Z,21.10
2018-09-19T20:36:52.097Z,21.00
2018-09-19T20:39:20.196Z,20.57
2018-09-19T20:41:48.375Z,21.80
2018-09-19T20:44:16.577Z,22.10
2018-09-19T20:46:44.800Z,23.35
2018-09-19T20:49:12.918Z,23.30
2018-09-19T20:51:41.057Z,23.22
2018-09-19T20:54:09.191Z,22.30
2018-09-19T20:56:37.353Z,22.40
2018-09-19T20:59:05.968Z,22.17
2018-09-19T21:01:34.111Z,22.30
2018-09-19T21:04:02.406Z,22.40
2018-09-19T21:06:30.539Z,22.40
2018-09-19T21:08:58.689Z,21.77
2018-09-19T21:11:26.850Z,21.80
2018-09-19T21:13:55.450Z,22.30
2018-09-19T21:16:23.692Z,22.60
2018-09-19T21:18:51.906Z,21.12
2018-09-19T21:21:20.094Z,21.27
2018-09-19T21:23:48.263Z,21.54
2018-09-19T21:26:16.387Z,21.82
2018-09-19T21:28:44.541Z,22.22
2018-09-19T21:31:12.682Z,23.55
2018-09-19T21:33:41.909Z,19.46
2018-09-19T21:36:10.047Z,22.10
2018-09-19T21:38:38.162Z,21.42
2018-09-19T21:41:06.624Z,20.52
2018-09-19T21:43:34.801Z,21.15
2018-09-19T21:46:02.944Z,20.20
2018-09-19T21:48:31.111Z,19.15
2018-09-19T21:50:59.356Z,18.20
2018-09-19T21:53:27.489Z,17.12
2018-09-19T21:55:55.636Z,17.00
2018-09-19T21:58:23.998Z,16.80
2018-09-19T22:00:57.426Z,16.07
2018-09-19T22:03:25.549Z,15.85
2018-09-19T22:05:53.656Z,14.23
2018-09-19T22:08:21.809Z,15.32
2018-09-19T22:10:49.923Z,15.75
2018-09-19T22:13:18.114Z,14.18
2018-09-19T22:15:46.289Z,14.27
2018-09-19T22:18:14.438Z,14.85
2018-09-19T22:20:42.588Z,15.10
2018-09-19T22:23:10.858Z,14.58
2018-09-19T22:25:39.016Z,13.40
2018-09-19T22:28:07.126Z,14.18
2018-09-19T22:30:35.257Z,13.05
2018-09-19T22:33:03.557Z,14.47
2018-09-19T22:35:31.689Z,12.63
2018-09-19T22:37:59.839Z,14.15
2018-09-19T22:40:28.017Z,13.98
2018-09-19T22:42:56.189Z,13.45
2018-09-19T22:45:24.325Z,12.63
2018-09-19T22:47:52.510Z,12.88
2018-09-19T22:50:20.672Z,13.10
2018-09-19T22:52:48.816Z,11.90
2018-09-19T22:55:17.012Z,12.77
2018-09-19T22:57:45.158Z,13.45
2018-09-19T23:00:13.284Z,12.35
2018-09-19T23:02:41.466Z,11.65
2018-09-19T23:05:09.596Z,12.25
2018-09-19T23:07:37.725Z,11.90
2018-09-19T23:10:05.975Z,11.55
2018-09-19T23:12:34.122Z,10.93
2018-09-19T23:15:02.276Z,10.90
2018-09-19T23:17:30.460Z,10.82
2018-09-19T23:19:58.629Z,11.50
2018-09-19T23:22:26.768Z,11.45
2018-09-19T23:24:55.036Z,12.20
2018-09-19T23:27:23.268Z,11.18
2018-09-19T23:29:51.478Z,11.55
2018-09-19T23:32:19.649Z,10.78
2018-09-19T23:34:47.818Z,11.10
2018-09-19T23:37:15.985Z,10.25
2018-09-19T23:39:44.155Z,10.38
2018-09-19T23:42:12.339Z,10.63
2018-09-19T23:44:40.498Z,10.13
2018-09-19T23:47:08.643Z,9.95
2018-09-19T23:49:36.794Z,9.58
2018-09-19T23:52:05.037Z,8.93
2018-09-19T23:54:33.183Z,9.47
2018-09-19T23:57:01.322Z,8.73
2018-09-19T23:59:29.460Z,9.70
